sensor_id;sensor_type;location;lat;lon;timestamp;pressure;altitude;pressure_sealevel;temperature;humidity
79465;BME280;68932;47.410;8.232;2023-04-24T00:00:42;96044.08;;;11.13;70.70
79465;BME280;68932;47.410;8.232;2023-04-24T00:03:09;96041.92;;;11.07;70.97
79465;BME280;68932;47.410;8.232;2023-04-24T00:05:36;96043.20;;;11.04;70.79
79465;BME280;68932;47.410;8.232;2023-04-24T00:08:03;96043.79;;;11.01;70.75
79465;BME280;68932;47.410;8.232;2023-04-24T00:10:30;96043.40;;;10.97;70.32
79465;BME280;68932;47.410;8.232;2023-04-24T00:12:57;96038.61;;;10.94;70.12
79465;BME280;68932;47.410;8.232;2023-04-24T00:15:24;96033.55;;;10.92;70.04
79465;BME280;68932;47.410;8.232;2023-04-24T00:17:51;96032.57;;;10.89;69.87
79465;BME280;68932;47.410;8.232;2023-04-24T00:20:18;96032.02;;;10.87;69.83
79465;BME280;68932;47.410;8.232;2023-04-24T00:22:45;96021.95;;;10.85;69.64
79465;BME280;68932;47.410;8.232;2023-04-24T00:25:12;96020.07;;;10.83;69.37
79465;BME280;68932;47.410;8.232;2023-04-24T00:27:39;96018.88;;;10.80;69.50
79465;BME280;68932;47.410;8.232;2023-04-24T00:30:08;96018.10;;;10.79;69.46
79465;BME280;68932;47.410;8.232;2023-04-24T00:32:36;96021.91;;;10.79;69.46
79465;BME280;68932;47.410;8.232;2023-04-24T00:35:04;96021.95;;;10.79;69.21
79465;BME280;68932;47.410;8.232;2023-04-24T00:37:31;96021.49;;;10.78;69.32
79465;BME280;68932;47.410;8.232;2023-04-24T00:39:58;96023.22;;;10.78;69.39
79465;BME280;68932;47.410;8.232;2023-04-24T00:42:25;96017.82;;;10.78;69.40
79465;BME280;68932;47.410;8.232;2023-04-24T00:44:52;96023.93;;;10.78;69.13
79465;BME280;68932;47.410;8.232;2023-04-24T00:47:19;96023.73;;;10.77;69.03
79465;BME280;68932;47.410;8.232;2023-04-24T00:49:46;96021.31;;;10.74;68.90
79465;BME280;68932;47.410;8.232;2023-04-24T00:52:13;96024.71;;;10.71;68.93
79465;BME280;68932;47.410;8.232;2023-04-24T00:54:40;96025.42;;;10.66;68.93
79465;BME280;68932;47.410;8.232;2023-04-24T00:57:07;96026.15;;;10.64;69.07
79465;BME280;68932;47.410;8.232;2023-04-24T00:59:35;96028.64;;;10.64;69.19
79465;BME280;68932;47.410;8.232;2023-04-24T01:02:02;96027.81;;;10.63;69.06
79465;BME280;68932;47.410;8.232;2023-04-24T01:04:29;96029.48;;;10.62;69.12
79465;BME280;68932;47.410;8.232;2023-04-24T01:06:57;96026.60;;;10.61;69.18
79465;BME280;68932;47.410;8.232;2023-04-24T01:09:24;96033.17;;;10.60;69.23
79465;BME280;68932;47.410;8.232;2023-04-24T01:11:51;96033.98;;;10.58;69.28
79465;BME280;68932;47.410;8.232;2023-04-24T01:14:18;96033.86;;;10.55;69.46
79465;BME280;68932;47.410;8.232;2023-04-24T01:16:46;96035.70;;;10.52;69.44
79465;BME280;68932;47.410;8.232;2023-04-24T01:19:15;96029.27;;;10.50;69.73
79465;BME280;68932;47.410;8.232;2023-04-24T01:21:43;96034.77;;;10.49;69.79
79465;BME280;68932;47.410;8.232;2023-04-24T01:24:13;96033.30;;;10.47;69.88
79465;BME280;68932;47.410;8.232;2023-04-24T01:26:40;96028.37;;;10.46;70.05
79465;BME280;68932;47.410;8.232;2023-04-24T01:29:08;96033.60;;;10.44;70.08
79465;BME280;68932;47.410;8.232;2023-04-24T01:31:35;96031.45;;;10.42;70.09
79465;BME280;68932;47.410;8.232;2023-04-24T01:34:03;96036.06;;;10.41;70.25
79465;BME280;68932;47.410;8.232;2023-04-24T01:36:31;96039.80;;;10.41;70.36
79465;BME280;68932;47.410;8.232;2023-04-24T01:38:58;96037.46;;;10.39;70.43
79465;BME280;68932;47.410;8.232;2023-04-24T01:41:25;96043.94;;;10.37;70.55
79465;BME280;68932;47.410;8.232;2023-04-24T01:43:52;96042.82;;;10.35;70.69
79465;BME280;68932;47.410;8.232;2023-04-24T01:46:20;96044.50;;;10.32;70.88
79465;BME280;68932;47.410;8.232;2023-04-24T01:48:47;96047.45;;;10.30;70.96
79465;BME280;68932;47.410;8.232;2023-04-24T01:51:15;96050.37;;;10.31;70.92
79465;BME280;68932;47.410;8.232;2023-04-24T01:53:42;96044.56;;;10.28;70.91
79465;BME280;68932;47.410;8.232;2023-04-24T01:56:09;96040.27;;;10.25;70.81
79465;BME280;68932;47.410;8.232;2023-04-24T01:58:36;96040.60;;;10.23;70.79
79465;BME280;68932;47.410;8.232;2023-04-24T02:01:04;96038.72;;;10.23;70.74
79465;BME280;68932;47.410;8.232;2023-04-24T02:03:33;96038.71;;;10.23;70.81
79465;BME280;68932;47.410;8.232;2023-04-24T02:05:59;96031.00;;;10.23;70.78
79465;BME280;68932;47.410;8.232;2023-04-24T02:08:27;96027.84;;;10.23;70.71
79465;BME280;68932;47.410;8.232;2023-04-24T02:10:54;96028.36;;;10.23;70.64
79465;BME280;68932;47.410;8.232;2023-04-24T02:13:21;96035.70;;;10.21;70.45
79465;BME280;68932;47.410;8.232;2023-04-24T02:15:47;96034.61;;;10.19;70.53
79465;BME280;68932;47.410;8.232;2023-04-24T02:18:14;96035.21;;;10.16;70.48
79465;BME280;68932;47.410;8.232;2023-04-24T02:20:41;96031.84;;;10.14;70.47
79465;BME280;68932;47.410;8.232;2023-04-24T02:23:08;96034.71;;;10.14;70.46
79465;BME280;68932;47.410;8.232;2023-04-24T02:25:35;96037.05;;;10.13;70.62
79465;BME280;68932;47.410;8.232;2023-04-24T02:28:02;96043.20;;;10.10;70.78
79465;BME280;68932;47.410;8.232;2023-04-24T02:30:29;96049.86;;;10.08;70.97
79465;BME280;68932;47.410;8.232;2023-04-24T02:32:56;96044.96;;;10.08;70.89
79465;BME280;68932;47.410;8.232;2023-04-24T02:35:23;96045.09;;;10.09;71.13
79465;BME280;68932;47.410;8.232;2023-04-24T02:37:50;96049.16;;;10.08;71.14
79465;BME280;68932;47.410;8.232;2023-04-24T02:40:18;96049.48;;;10.08;71.21
79465;BME280;68932;47.410;8.232;2023-04-24T02:42:45;96052.98;;;10.07;71.29
79465;BME280;68932;47.410;8.232;2023-04-24T02:45:12;96049.84;;;10.04;71.44
79465;BME280;68932;47.410;8.232;2023-04-24T02:47:39;96047.98;;;10.03;71.80
79465;BME280;68932;47.410;8.232;2023-04-24T02:50:08;96046.22;;;10.01;71.91
79465;BME280;68932;47.410;8.232;2023-04-24T02:52:35;96045.01;;;10.00;72.09
79465;BME280;68932;47.410;8.232;2023-04-24T02:55:04;96044.89;;;10.00;72.27
79465;BME280;68932;47.410;8.232;2023-04-24T02:57:31;96043.58;;;9.99;72.48
79465;BME280;68932;47.410;8.232;2023-04-24T02:59:58;96042.95;;;9.97;72.67
79465;BME280;68932;47.410;8.232;2023-04-24T03:02:25;96048.60;;;9.95;72.57
79465;BME280;68932;47.410;8.232;2023-04-24T03:04:52;96052.57;;;9.93;72.63
79465;BME280;68932;47.410;8.232;2023-04-24T03:07:19;96057.17;;;9.95;72.88
79465;BME280;68932;47.410;8.232;2023-04-24T03:09:46;96051.95;;;9.94;72.92
79465;BME280;68932;47.410;8.232;2023-04-24T03:12:13;96048.60;;;9.95;72.86
79465;BME280;68932;47.410;8.232;2023-04-24T03:14:40;96048.90;;;9.93;72.93
79465;BME280;68932;47.410;8.232;2023-04-24T03:17:07;96042.44;;;9.91;72.90
79465;BME280;68932;47.410;8.232;2023-04-24T03:19:34;96032.86;;;9.91;72.92
79465;BME280;68932;47.410;8.232;2023-04-24T03:22:02;96040.10;;;9.94;72.90
79465;BME280;68932;47.410;8.232;2023-04-24T03:24:29;96038.98;;;9.93;72.72
79465;BME280;68932;47.410;8.232;2023-04-24T03:26:56;96037.56;;;9.93;72.69
79465;BME280;68932;47.410;8.232;2023-04-24T03:29:23;96040.04;;;9.92;72.76
79465;BME280;68932;47.410;8.232;2023-04-24T03:31:50;96038.70;;;9.91;72.90
79465;BME280;68932;47.410;8.232;2023-04-24T03:34:17;96041.50;;;9.92;73.06
79465;BME280;68932;47.410;8.232;2023-04-24T03:36:44;96039.65;;;9.90;73.04
79465;BME280;68932;47.410;8.232;2023-04-24T03:39:11;96043.69;;;9.88;73.27
79465;BME280;68932;47.410;8.232;2023-04-24T03:41:38;96043.91;;;9.88;73.36
79465;BME280;68932;47.410;8.232;2023-04-24T03:44:05;96043.77;;;9.87;73.42
79465;BME280;68932;47.410;8.232;2023-04-24T03:46:32;96041.02;;;9.89;73.62
79465;BME280;68932;47.410;8.232;2023-04-24T03:48:59;96041.20;;;9.89;73.54
79465;BME280;68932;47.410;8.232;2023-04-24T03:51:26;96036.98;;;9.89;73.54
79465;BME280;68932;47.410;8.232;2023-04-24T03:53:53;96036.83;;;9.86;73.56
79465;BME280;68932;47.410;8.232;2023-04-24T03:56:20;96034.80;;;9.84;73.60
79465;BME280;68932;47.410;8.232;2023-04-24T03:58:46;96034.42;;;9.82;73.68
79465;BME280;68932;47.410;8.232;2023-04-24T04:01:13;96038.49;;;9.81;73.87
79465;BME280;68932;47.410;8.232;2023-04-24T04:03:40;96040.42;;;9.81;73.85
79465;BME280;68932;47.410;8.232;2023-04-24T04:06:07;96044.65;;;9.80;74.00
79465;BME280;68932;47.410;8.232;2023-04-24T04:08:34;96043.55;;;9.77;74.06
79465;BME280;68932;47.410;8.232;2023-04-24T04:11:01;96049.09;;;9.73;74.14
79465;BME280;68932;47.410;8.232;2023-04-24T04:13:28;96051.80;;;9.70;74.28
79465;BME280;68932;47.410;8.232;2023-04-24T04:15:55;96061.09;;;9.67;74.44
79465;BME280;68932;47.410;8.232;2023-04-24T04:18:22;96073.67;;;9.65;74.71
79465;BME280;68932;47.410;8.232;2023-04-24T04:20:49;96077.04;;;9.64;74.95
79465;BME280;68932;47.410;8.232;2023-04-24T04:23:16;96085.72;;;9.65;75.17
79465;BME280;68932;47.410;8.232;2023-04-24T04:25:43;96088.25;;;9.62;75.52
79465;BME280;68932;47.410;8.232;2023-04-24T04:28:10;96092.73;;;9.58;75.65
79465;BME280;68932;47.410;8.232;2023-04-24T04:30:37;96095.85;;;9.56;75.86
79465;BME280;68932;47.410;8.232;2023-04-24T04:33:04;96100.89;;;9.57;76.14
79465;BME280;68932;47.410;8.232;2023-04-24T04:35:31;96105.86;;;9.55;76.37
79465;BME280;68932;47.410;8.232;2023-04-24T04:37:58;96103.89;;;9.54;76.45
79465;BME280;68932;47.410;8.232;2023-04-24T04:40:25;96107.09;;;9.53;76.64
79465;BME280;68932;47.410;8.232;2023-04-24T04:42:52;96114.77;;;9.53;76.67
79465;BME280;68932;47.410;8.232;2023-04-24T04:45:19;96117.10;;;9.55;76.81
79465;BME280;68932;47.410;8.232;2023-04-24T04:47:46;96118.44;;;9.56;76.76
79465;BME280;68932;47.410;8.232;2023-04-24T04:50:13;96123.56;;;9.58;76.72
79465;BME280;68932;47.410;8.232;2023-04-24T04:52:40;96121.33;;;9.59;76.95
79465;BME280;68932;47.410;8.232;2023-04-24T04:55:08;96121.30;;;9.59;76.87
79465;BME280;68932;47.410;8.232;2023-04-24T04:57:35;96121.83;;;9.55;77.15
79465;BME280;68932;47.410;8.232;2023-04-24T05:00:03;96119.91;;;9.50;77.07
79465;BME280;68932;47.410;8.232;2023-04-24T05:02:30;96120.83;;;9.50;77.13
79465;BME280;68932;47.410;8.232;2023-04-24T05:04:57;96117.02;;;9.51;77.35
79465;BME280;68932;47.410;8.232;2023-04-24T05:07:24;96119.70;;;9.53;77.40
79465;BME280;68932;47.410;8.232;2023-04-24T05:09:51;96124.02;;;9.56;77.43
79465;BME280;68932;47.410;8.232;2023-04-24T05:12:18;96133.39;;;9.59;77.18
79465;BME280;68932;47.410;8.232;2023-04-24T05:14:45;96141.08;;;9.65;77.22
79465;BME280;68932;47.410;8.232;2023-04-24T05:17:12;96141.50;;;9.66;77.42
79465;BME280;68932;47.410;8.232;2023-04-24T05:19:39;96149.48;;;9.67;77.32
79465;BME280;68932;47.410;8.232;2023-04-24T05:22:06;96154.89;;;9.65;77.28
79465;BME280;68932;47.410;8.232;2023-04-24T05:24:33;96157.46;;;9.63;77.41
79465;BME280;68932;47.410;8.232;2023-04-24T05:27:00;96156.48;;;9.62;77.36
79465;BME280;68932;47.410;8.232;2023-04-24T05:29:27;96164.19;;;9.59;77.24
79465;BME280;68932;47.410;8.232;2023-04-24T05:31:54;96161.52;;;9.60;77.23
79465;BME280;68932;47.410;8.232;2023-04-24T05:34:21;96165.13;;;9.61;76.89
79465;BME280;68932;47.410;8.232;2023-04-24T05:36:49;96173.19;;;9.63;76.79
79465;BME280;68932;47.410;8.232;2023-04-24T05:39:16;96176.19;;;9.68;76.75
79465;BME280;68932;47.410;8.232;2023-04-24T05:41:44;96179.95;;;9.76;76.89
79465;BME280;68932;47.410;8.232;2023-04-24T05:44:11;96177.80;;;9.83;76.98
79465;BME280;68932;47.410;8.232;2023-04-24T05:46:38;96182.33;;;9.90;77.03
79465;BME280;68932;47.410;8.232;2023-04-24T05:49:05;96185.13;;;9.97;77.10
79465;BME280;68932;47.410;8.232;2023-04-24T05:51:31;96184.88;;;10.06;76.93
79465;BME280;68932;47.410;8.232;2023-04-24T05:53:58;96183.02;;;10.10;76.53
79465;BME280;68932;47.410;8.232;2023-04-24T05:56:25;96187.95;;;10.13;76.45
79465;BME280;68932;47.410;8.232;2023-04-24T05:58:52;96189.40;;;10.13;76.38
79465;BME280;68932;47.410;8.232;2023-04-24T06:01:19;96193.01;;;10.14;76.38
79465;BME280;68932;47.410;8.232;2023-04-24T06:03:46;96202.90;;;10.12;76.38
79465;BME280;68932;47.410;8.232;2023-04-24T06:06:13;96201.17;;;10.12;76.38
79465;BME280;68932;47.410;8.232;2023-04-24T06:08:41;96197.90;;;10.14;76.34
79465;BME280;68932;47.410;8.232;2023-04-24T06:11:08;96194.13;;;10.13;76.27
79465;BME280;68932;47.410;8.232;2023-04-24T06:13:35;96200.08;;;10.13;76.11
79465;BME280;68932;47.410;8.232;2023-04-24T06:16:02;96201.20;;;10.16;76.11
79465;BME280;68932;47.410;8.232;2023-04-24T06:18:29;96202.88;;;10.22;76.29
79465;BME280;68932;47.410;8.232;2023-04-24T06:20:56;96204.96;;;10.25;76.21
79465;BME280;68932;47.410;8.232;2023-04-24T06:23:23;96205.20;;;10.26;76.23
79465;BME280;68932;47.410;8.232;2023-04-24T06:25:50;96208.34;;;10.26;76.19
79465;BME280;68932;47.410;8.232;2023-04-24T06:28:17;96206.83;;;10.25;76.21
79465;BME280;68932;47.410;8.232;2023-04-24T06:30:44;96205.17;;;10.26;76.41
79465;BME280;68932;47.410;8.232;2023-04-24T06:33:11;96209.75;;;10.24;76.48
79465;BME280;68932;47.410;8.232;2023-04-24T06:35:38;96201.91;;;10.26;76.63
79465;BME280;68932;47.410;8.232;2023-04-24T06:38:06;96205.27;;;10.30;76.69
79465;BME280;68932;47.410;8.232;2023-04-24T06:40:33;96203.81;;;10.35;76.75
79465;BME280;68932;47.410;8.232;2023-04-24T06:43:00;96199.44;;;10.44;76.76
79465;BME280;68932;47.410;8.232;2023-04-24T06:45:27;96202.54;;;10.56;76.57
79465;BME280;68932;47.410;8.232;2023-04-24T06:47:54;96193.36;;;10.70;76.57
79465;BME280;68932;47.410;8.232;2023-04-24T06:50:21;96197.48;;;10.92;76.73
79465;BME280;68932;47.410;8.232;2023-04-24T06:52:48;96194.95;;;11.06;76.12
79465;BME280;68932;47.410;8.232;2023-04-24T06:55:16;96192.38;;;11.11;75.89
79465;BME280;68932;47.410;8.232;2023-04-24T06:57:43;96192.76;;;11.13;75.45
79465;BME280;68932;47.410;8.232;2023-04-24T07:00:13;96188.40;;;11.15;75.07
79465;BME280;68932;47.410;8.232;2023-04-24T07:02:40;96195.69;;;11.16;74.87
79465;BME280;68932;47.410;8.232;2023-04-24T07:05:08;96190.47;;;11.22;74.73
79465;BME280;68932;47.410;8.232;2023-04-24T07:07:35;96195.10;;;11.28;74.61
79465;BME280;68932;47.410;8.232;2023-04-24T07:10:02;96194.94;;;11.34;74.66
79465;BME280;68932;47.410;8.232;2023-04-24T07:12:29;96206.64;;;11.48;74.70
79465;BME280;68932;47.410;8.232;2023-04-24T07:14:56;96217.81;;;11.57;74.34
79465;BME280;68932;47.410;8.232;2023-04-24T07:17:23;96219.98;;;11.56;73.96
79465;BME280;68932;47.410;8.232;2023-04-24T07:19:50;96223.27;;;11.63;73.67
79465;BME280;68932;47.410;8.232;2023-04-24T07:22:17;96221.41;;;11.71;73.60
79465;BME280;68932;47.410;8.232;2023-04-24T07:24:44;96224.47;;;11.76;73.42
79465;BME280;68932;47.410;8.232;2023-04-24T07:27:11;96224.67;;;11.74;73.09
79465;BME280;68932;47.410;8.232;2023-04-24T07:29:38;96225.39;;;11.65;72.82
79465;BME280;68932;47.410;8.232;2023-04-24T07:32:05;96226.86;;;11.56;72.65
79465;BME280;68932;47.410;8.232;2023-04-24T07:34:32;96231.45;;;11.47;72.81
79465;BME280;68932;47.410;8.232;2023-04-24T07:37:00;96267.02;;;11.37;73.04
79465;BME280;68932;47.410;8.232;2023-04-24T07:39:27;96268.92;;;11.19;69.31
79465;BME280;68932;47.410;8.232;2023-04-24T07:41:54;96269.98;;;10.88;65.90
79465;BME280;68932;47.410;8.232;2023-04-24T07:44:21;96287.92;;;10.56;65.94
79465;BME280;68932;47.410;8.232;2023-04-24T07:46:48;96286.35;;;10.25;66.45
79465;BME280;68932;47.410;8.232;2023-04-24T07:49:15;96289.73;;;9.99;66.88
79465;BME280;68932;47.410;8.232;2023-04-24T07:51:42;96290.71;;;9.76;67.36
79465;BME280;68932;47.410;8.232;2023-04-24T07:54:09;96292.52;;;9.61;68.28
79465;BME280;68932;47.410;8.232;2023-04-24T07:56:36;96294.59;;;9.54;68.98
79465;BME280;68932;47.410;8.232;2023-04-24T07:59:03;96300.59;;;9.51;69.52
79465;BME280;68932;47.410;8.232;2023-04-24T08:01:31;96299.46;;;9.47;69.88
79465;BME280;68932;47.410;8.232;2023-04-24T08:03:58;96302.71;;;9.43;69.91
79465;BME280;68932;47.410;8.232;2023-04-24T08:06:24;96303.67;;;9.39;69.38
79465;BME280;68932;47.410;8.232;2023-04-24T08:08:51;96308.61;;;9.36;69.46
79465;BME280;68932;47.410;8.232;2023-04-24T08:11:18;96312.23;;;9.39;69.53
79465;BME280;68932;47.410;8.232;2023-04-24T08:13:45;96312.41;;;9.44;69.77
79465;BME280;68932;47.410;8.232;2023-04-24T08:16:12;96314.56;;;9.51;69.45
79465;BME280;68932;47.410;8.232;2023-04-24T08:18:40;96314.24;;;9.58;68.84
79465;BME280;68932;47.410;8.232;2023-04-24T08:21:07;96322.52;;;9.62;67.68
79465;BME280;68932;47.410;8.232;2023-04-24T08:23:34;96327.52;;;9.63;67.32
79465;BME280;68932;47.410;8.232;2023-04-24T08:26:01;96331.83;;;9.64;67.82
79465;BME280;68932;47.410;8.232;2023-04-24T08:28:28;96329.91;;;9.66;67.56
79465;BME280;68932;47.410;8.232;2023-04-24T08:30:55;96331.55;;;9.73;68.20
79465;BME280;68932;47.410;8.232;2023-04-24T08:33:22;96327.05;;;9.79;67.80
79465;BME280;68932;47.410;8.232;2023-04-24T08:35:49;96326.78;;;9.90;68.28
79465;BME280;68932;47.410;8.232;2023-04-24T08:38:16;96323.73;;;10.03;68.14
79465;BME280;68932;47.410;8.232;2023-04-24T08:40:43;96330.39;;;10.10;67.95
79465;BME280;68932;47.410;8.232;2023-04-24T08:43:11;96332.46;;;10.20;66.76
79465;BME280;68932;47.410;8.232;2023-04-24T08:45:39;96340.52;;;10.34;66.85
79465;BME280;68932;47.410;8.232;2023-04-24T08:48:06;96334.60;;;10.52;66.57
79465;BME280;68932;47.410;8.232;2023-04-24T08:50:35;96343.41;;;10.70;66.59
79465;BME280;68932;47.410;8.232;2023-04-24T08:53:02;96340.69;;;10.90;65.74
79465;BME280;68932;47.410;8.232;2023-04-24T08:55:31;96349.17;;;11.07;63.48
79465;BME280;68932;47.410;8.232;2023-04-24T08:57:59;96344.84;;;11.20;63.11
79465;BME280;68932;47.410;8.232;2023-04-24T09:00:28;96345.70;;;11.29;62.95
79465;BME280;68932;47.410;8.232;2023-04-24T09:02:56;96352.92;;;11.38;62.02
79465;BME280;68932;47.410;8.232;2023-04-24T09:05:23;96355.62;;;11.41;61.23
79465;BME280;68932;47.410;8.232;2023-04-24T09:07:54;96355.77;;;11.42;61.47
79465;BME280;68932;47.410;8.232;2023-04-24T09:10:22;96358.55;;;11.44;62.25
79465;BME280;68932;47.410;8.232;2023-04-24T09:12:50;96358.60;;;11.44;61.22
79465;BME280;68932;47.410;8.232;2023-04-24T09:15:19;96364.85;;;11.45;62.29
79465;BME280;68932;47.410;8.232;2023-04-24T09:17:46;96365.21;;;11.46;61.95
79465;BME280;68932;47.410;8.232;2023-04-24T09:20:13;96372.24;;;11.44;61.48
79465;BME280;68932;47.410;8.232;2023-04-24T09:22:40;96374.45;;;11.36;61.06
79465;BME280;68932;47.410;8.232;2023-04-24T09:25:09;96382.95;;;11.29;61.06
79465;BME280;68932;47.410;8.232;2023-04-24T09:27:36;96386.14;;;11.19;60.90
79465;BME280;68932;47.410;8.232;2023-04-24T09:30:09;96389.52;;;11.09;61.03
79465;BME280;68932;47.410;8.232;2023-04-24T09:32:36;96386.33;;;10.98;61.31
79465;BME280;68932;47.410;8.232;2023-04-24T09:35:09;96386.78;;;10.92;61.69
79465;BME280;68932;47.410;8.232;2023-04-24T09:37:38;96389.39;;;10.93;61.69
79465;BME280;68932;47.410;8.232;2023-04-24T09:40:16;96382.20;;;10.95;61.70
79465;BME280;68932;47.410;8.232;2023-04-24T09:42:45;96382.89;;;11.02;62.09
79465;BME280;68932;47.410;8.232;2023-04-24T09:45:12;96383.67;;;11.12;62.21
79465;BME280;68932;47.410;8.232;2023-04-24T09:47:40;96379.08;;;11.22;61.49
79465;BME280;68932;47.410;8.232;2023-04-24T09:50:13;96382.14;;;11.30;61.53
79465;BME280;68932;47.410;8.232;2023-04-24T09:52:45;96385.56;;;11.35;60.25
79465;BME280;68932;47.410;8.232;2023-04-24T09:55:16;96381.66;;;11.34;59.60
79465;BME280;68932;47.410;8.232;2023-04-24T09:57:54;96386.98;;;11.31;59.38
79465;BME280;68932;47.410;8.232;2023-04-24T10:00:25;96388.59;;;11.35;60.30
79465;BME280;68932;47.410;8.232;2023-04-24T10:02:57;96393.52;;;11.46;60.37
79465;BME280;68932;47.410;8.232;2023-04-24T10:05:28;96386.58;;;11.56;59.80
79465;BME280;68932;47.410;8.232;2023-04-24T10:07:59;96384.46;;;11.69;59.52
79465;BME280;68932;47.410;8.232;2023-04-24T10:10:27;96377.48;;;11.82;58.57
79465;BME280;68932;47.410;8.232;2023-04-24T10:12:55;96375.63;;;11.85;57.47
79465;BME280;68932;47.410;8.232;2023-04-24T10:15:22;96374.15;;;11.93;57.25
79465;BME280;68932;47.410;8.232;2023-04-24T10:17:51;96375.50;;;12.11;56.84
79465;BME280;68932;47.410;8.232;2023-04-24T10:20:19;96366.67;;;12.27;55.85
79465;BME280;68932;47.410;8.232;2023-04-24T10:22:49;96373.17;;;12.42;55.77
79465;BME280;68932;47.410;8.232;2023-04-24T10:25:17;96366.08;;;12.47;55.17
79465;BME280;68932;47.410;8.232;2023-04-24T10:27:46;96367.55;;;12.50;54.61
79465;BME280;68932;47.410;8.232;2023-04-24T10:30:15;96374.90;;;12.46;54.34
79465;BME280;68932;47.410;8.232;2023-04-24T10:32:42;96376.43;;;12.36;53.63
79465;BME280;68932;47.410;8.232;2023-04-24T10:35:10;96373.48;;;12.29;54.61
79465;BME280;68932;47.410;8.232;2023-04-24T10:37:42;96378.57;;;12.23;54.91
79465;BME280;68932;47.410;8.232;2023-04-24T10:40:16;96381.55;;;12.21;54.84
79465;BME280;68932;47.410;8.232;2023-04-24T10:42:48;96387.13;;;12.22;53.21
79465;BME280;68932;47.410;8.232;2023-04-24T10:45:18;96384.27;;;12.20;51.95
79465;BME280;68932;47.410;8.232;2023-04-24T10:47:53;96387.01;;;12.23;52.99
79465;BME280;68932;47.410;8.232;2023-04-24T10:50:20;96384.89;;;12.32;52.69
79465;BME280;68932;47.410;8.232;2023-04-24T10:52:48;96382.49;;;12.40;52.62
79465;BME280;68932;47.410;8.232;2023-04-24T10:55:15;96388.14;;;12.52;52.36
79465;BME280;68932;47.410;8.232;2023-04-24T10:58:02;96385.69;;;12.61;52.57
79465;BME280;68932;47.410;8.232;2023-04-24T11:00:29;96389.05;;;12.69;51.49
79465;BME280;68932;47.410;8.232;2023-04-24T11:02:57;96393.86;;;12.72;52.05
79465;BME280;68932;47.410;8.232;2023-04-24T11:05:50;96393.52;;;12.76;52.20
79465;BME280;68932;47.410;8.232;2023-04-24T11:08:24;96399.61;;;12.79;53.46
79465;BME280;68932;47.410;8.232;2023-04-24T11:11:03;96389.11;;;12.70;54.10
79465;BME280;68932;47.410;8.232;2023-04-24T11:14:01;96386.00;;;12.65;53.10
79465;BME280;68932;47.410;8.232;2023-04-24T11:16:30;96386.75;;;12.65;53.70
79465;BME280;68932;47.410;8.232;2023-04-24T11:19:02;96390.32;;;12.64;52.31
79465;BME280;68932;47.410;8.232;2023-04-24T11:21:38;96386.38;;;12.63;52.68
79465;BME280;68932;47.410;8.232;2023-04-24T11:24:23;96389.80;;;12.62;51.77
79465;BME280;68932;47.410;8.232;2023-04-24T11:26:52;96391.36;;;12.62;52.29
79465;BME280;68932;47.410;8.232;2023-04-24T11:29:21;96391.54;;;12.56;52.12
79465;BME280;68932;47.410;8.232;2023-04-24T11:31:48;96396.63;;;12.49;52.70
79465;BME280;68932;47.410;8.232;2023-04-24T11:34:15;96402.10;;;12.45;52.82
79465;BME280;68932;47.410;8.232;2023-04-24T11:36:45;96406.91;;;12.37;53.57
79465;BME280;68932;47.410;8.232;2023-04-24T11:39:12;96407.56;;;12.32;54.46
79465;BME280;68932;47.410;8.232;2023-04-24T11:41:40;96408.75;;;12.32;55.03
79465;BME280;68932;47.410;8.232;2023-04-24T11:44:08;96404.65;;;12.35;54.38
79465;BME280;68932;47.410;8.232;2023-04-24T11:46:35;96400.88;;;12.45;54.69
79465;BME280;68932;47.410;8.232;2023-04-24T11:49:02;96399.84;;;12.53;53.27
79465;BME280;68932;47.410;8.232;2023-04-24T11:51:29;96397.45;;;12.63;53.37
79465;BME280;68932;47.410;8.232;2023-04-24T11:53:56;96397.59;;;12.78;53.57
79465;BME280;68932;47.410;8.232;2023-04-24T11:56:24;96397.20;;;12.87;51.92
79465;BME280;68932;47.410;8.232;2023-04-24T11:58:53;96395.09;;;12.85;51.06
79465;BME280;68932;47.410;8.232;2023-04-24T12:01:20;96397.13;;;12.77;50.50
79465;BME280;68932;47.410;8.232;2023-04-24T12:03:49;96398.82;;;12.76;50.68
79465;BME280;68932;47.410;8.232;2023-04-24T12:06:17;96397.54;;;12.76;49.96
79465;BME280;68932;47.410;8.232;2023-04-24T12:08:47;96396.00;;;12.76;50.76
79465;BME280;68932;47.410;8.232;2023-04-24T12:11:16;96394.13;;;12.79;50.58
79465;BME280;68932;47.410;8.232;2023-04-24T12:13:44;96392.83;;;12.83;49.89
79465;BME280;68932;47.410;8.232;2023-04-24T12:16:11;96392.18;;;12.88;50.48
79465;BME280;68932;47.410;8.232;2023-04-24T12:18:43;96387.55;;;12.95;51.10
79465;BME280;68932;47.410;8.232;2023-04-24T12:21:18;96393.88;;;13.03;51.46
79465;BME280;68932;47.410;8.232;2023-04-24T12:23:46;96389.86;;;13.11;50.72
79465;BME280;68932;47.410;8.232;2023-04-24T12:26:17;96385.61;;;13.17;50.51
79465;BME280;68932;47.410;8.232;2023-04-24T12:28:47;96385.07;;;13.26;50.48
79465;BME280;68932;47.410;8.232;2023-04-24T12:31:14;96388.89;;;13.41;50.40
79465;BME280;68932;47.410;8.232;2023-04-24T12:33:42;96387.30;;;13.60;50.68
79465;BME280;68932;47.410;8.232;2023-04-24T12:36:10;96383.66;;;13.77;48.95
79465;BME280;68932;47.410;8.232;2023-04-24T12:38:37;96383.21;;;13.84;48.25
79465;BME280;68932;47.410;8.232;2023-04-24T12:41:07;96382.61;;;13.79;47.71
79465;BME280;68932;47.410;8.232;2023-04-24T12:43:34;96381.81;;;13.70;47.55
79465;BME280;68932;47.410;8.232;2023-04-24T12:46:02;96379.05;;;13.59;47.49
79465;BME280;68932;47.410;8.232;2023-04-24T12:48:29;96381.45;;;13.48;47.14
79465;BME280;68932;47.410;8.232;2023-04-24T12:50:57;96378.67;;;13.37;48.08
79465;BME280;68932;47.410;8.232;2023-04-24T12:53:24;96380.27;;;13.31;47.74
79465;BME280;68932;47.410;8.232;2023-04-24T12:55:52;96376.90;;;13.27;47.52
79465;BME280;68932;47.410;8.232;2023-04-24T12:58:20;96373.00;;;13.27;48.37
79465;BME280;68932;47.410;8.232;2023-04-24T13:00:47;96381.80;;;13.30;47.99
79465;BME280;68932;47.410;8.232;2023-04-24T13:03:14;96381.17;;;13.33;48.79
79465;BME280;68932;47.410;8.232;2023-04-24T13:05:42;96386.69;;;13.34;49.62